AirNav   Air Wisconsin Up To $57,000 Bonus
 
 1533 users online  

17NE Jefferson County Memorial Hospital Heliport
Fairbury, Nebraska, USA

GOING TO FAIRBURY?


FAA INFORMATION EFFECTIVE 02 JANUARY 2020

Location

FAA Identifier: 17NE
Lat/Long: 40-09-17.5800N 097-10-26.1600W
40-09.293000N 097-10.436000W
40.1548833,-97.1739333
(estimated)
Elevation: 1433 ft. / 436.8 m (surveyed)
Variation: 07E (1985)
From city: 1 mile N of FAIRBURY, NE
Time zone: UTC -6 (UTC -5 during Daylight Saving Time)
Zip code: 68352

Heliport Operations

Heliport use: Private use, MEDICAL.
Activation date: 07/1980
Control tower: no
ARTCC: MINNEAPOLIS CENTER
FSS: COLUMBUS FLIGHT SERVICE STATION
Attendance: UNATNDD
Wind indicator: yes
Segmented circle: no

Heliport Communications

WX AWOS-3 at HJH (19 nm W): 118.525 (402-768-2501)

Nearby radio navigation aids

VOR radial/distance  VOR name  Freq  Var
BIEr238/(21.1)BEATRICE VOR110.6007E

 
NDB name  Hdg/Dist  Freq  Var  ID
FAIRBURY190/1.429306EFBY ..-. -... -.--
BEKLOF138/31.739207EFMZ ..-. -- --..

Heliport Services

Runway Information

Helipad H1

Dimensions: 40 x 40 ft. / 12 x 12 m
Surface: concrete
Latitude: 40-09.293000N
Longitude: 097-10.436000W
Elevation: 1433.0 ft.
Traffic pattern: leftleft
Obstructions: 30 ft. bldg, 45 ft. from runway
NW OF LANDING PAD.

Heliport Ownership and Management from official FAA records

Ownership: Publicly-owned
Owner: JEFFERSON COMMUNITY HEALTH CENTER
2200 H STREET
FAIRBURY, NE 68352
Phone 402-729-3351
Manager: CHAD JURGENS, CEO
2200 H STREET
FAIRBURY, NE 68352
Phone 402-729-3351

Additional Remarks

FOR CD CTC MINNEAPOLIS ARTCC AT 651-463-5588.

Instrument Procedures

There are no published instrument procedures at 17NE.

Some nearby airports with instrument procedures:

KFBY - Fairbury Municipal Airport (2 nm N)
KHJH - Hebron Municipal Airport (19 nm W)
KBIE - Beatrice Municipal Airport (21 nm NE)
K38 - Washington County Veteran's Memorial Airport (26 nm S)
KCEK - Crete Municipal Airport (30 nm N)
 
Loc | Ops | Rwys | IFR | FBO | Links
Com | Nav | Svcs | Stats | Notes

Silverhawk Aviation, Inc.
AirBoss

 
Area around 17NE (Jefferson County Memorial Hospital Heliport)
 
Road maps at: MapQuest Bing Google
 
Aerial photo
No photo
 
Sectional chart

 
Airport distance calculator
Flying to Jefferson County Memorial Hospital Heliport? Find the distance to fly.

From to 17NE

Sunrise and sunset
Times for 23-Jan-2020
 Local
(UTC-6)
 Zulu
(UTC)
Morning civil twilight07:1713:17
Sunrise07:4613:46
Sunset17:3523:35
Evening civil twilight18:0500:05

Current date and time
Zulu (UTC)  23-Jan-2020 23:07:18
Local (UTC-6)  23-Jan-2020 17:07:18
 
METAR
KHJH 
19nm W 
232255Z AUTO 35014G17KT 5SM BR OVC011 M01/M02 A2997 RMK AO2 T10081021
KBIE 
21nm E 
232255Z AUTO 34015KT 1 3/4SM -SN OVC009 00/M01 A2994 RMK AO2 T00001006
KMYZ 
31nm SE 
232255Z AUTO 35008KT 1SM -SN OVC004 00/00 A2992 RMK AO2
TAF
KLNK 
45nm NE 
232037Z 2321/2418 33015KT 1SM -SN OVC008 FM232300 34010KT 4SM -SN BR OVC008 FM240400 34008KT P6SM OVC008
NOTAMs
Click for the latest NOTAMs
NOTAMs are issued by the DoD/FAA and will open in a separate window not controlled by AirNav.

 

 
 

Would you like to see your business listed on this page?

 If your business provides an interesting product or service to pilots, flight crews, aircraft, or users of the Jefferson County Memorial Hospital Heliport, you should consider listing it here.  To start the listing process, click on the button below
 
Add a business
 

Other Pages about Jefferson County Memorial Hospital Heliport

Update a link
 
Copyright © AirNav, LLC. All rights reserved. Privacy Policy  Contact